Terminal Aerodrome Forecast
Issued by NWS Wichita, KS

Home | Current Version | Previous Version | Graphics & Text | Print | Product List | Glossary On
Versions: 1 2 3 4 5 6 7 8 9 10 11 12 13 14 15 16 17 18 19 20 21 22 23 24 25 26 27 28 29 30 31
000
FTUS43 KICT 161012 AAB
TAFICT
TAF AMD
KICT 161012Z 1610/1706 34017G25KT P6SM OVC025
     FM161300 34013KT P6SM SCT025
     FM161800 34007KT P6SM SKC
     FM162200 35007KT P6SM BKN250=

USA.gov is the U.S. government's official web portal to all federal, state and local government web resources and services.